createdAt,value
2022-07-29T00:01:43.793Z,6.10
2022-07-29T00:04:13.085Z,6.33
2022-07-29T00:06:44.131Z,5.13
2022-07-29T00:09:14.720Z,6.20
2022-07-29T00:11:44.637Z,5.30
2022-07-29T00:14:13.258Z,6.53
2022-07-29T00:16:42.945Z,6.47
2022-07-29T00:19:11.701Z,11.57
2022-07-29T00:21:42.033Z,8.20
2022-07-29T00:24:10.779Z,5.70
2022-07-29T00:26:40.638Z,4.93
2022-07-29T00:31:57.767Z,6.87
2022-07-29T00:34:43.319Z,6.40
2022-07-29T00:37:13.171Z,7.80
2022-07-29T00:39:42.079Z,6.90
2022-07-29T00:42:12.033Z,5.33
2022-07-29T00:44:41.371Z,4.93
2022-07-29T00:47:10.851Z,5.27
2022-07-29T00:49:42.286Z,6.37
2022-07-29T00:52:12.753Z,7.17
2022-07-29T00:54:45.916Z,7.83
2022-07-29T00:57:17.299Z,7.57
2022-07-29T00:59:46.464Z,9.97
2022-07-29T01:02:15.217Z,5.47
2022-07-29T01:04:44.297Z,8.40
2022-07-29T01:07:13.640Z,15.03
2022-07-29T01:09:47.169Z,9.80
2022-07-29T01:12:29.796Z,6.70
2022-07-29T01:14:59.932Z,8.50
2022-07-29T01:17:35.209Z,7.90
2022-07-29T01:20:12.805Z,7.50
2022-07-29T01:23:21.578Z,8.47
2022-07-29T01:26:42.015Z,6.77
2022-07-29T01:29:36.075Z,9.13
2022-07-29T01:32:28.651Z,7.30
2022-07-29T01:35:04.257Z,11.73
2022-07-29T01:37:42.165Z,5.60
2022-07-29T01:40:19.381Z,5.07
2022-07-29T01:42:52.658Z,6.17
2022-07-29T01:45:29.613Z,5.57
2022-07-29T01:48:03.429Z,8.00
2022-07-29T01:50:36.620Z,7.30
2022-07-29T01:53:09.232Z,8.07
2022-07-29T01:55:43.546Z,7.37
2022-07-29T01:58:15.379Z,4.37
2022-07-29T02:00:48.286Z,5.73
2022-07-29T02:03:20.054Z,8.53
2022-07-29T02:05:51.848Z,6.63
2022-07-29T02:08:23.400Z,5.37
2022-07-29T02:10:55.108Z,8.17
2022-07-29T02:13:28.557Z,9.60
2022-07-29T02:16:01.083Z,11.63
2022-07-29T02:18:30.842Z,9.40
2022-07-29T02:21:01.893Z,8.23
2022-07-29T02:23:31.558Z,6.80
2022-07-29T02:26:24.560Z,10.57
2022-07-29T02:28:58.876Z,9.57
2022-07-29T02:31:35.355Z,5.37
2022-07-29T02:34:06.366Z,7.47
2022-07-29T02:36:36.285Z,9.57
2022-07-29T02:39:10.548Z,7.47
2022-07-29T02:41:46.106Z,6.53
2022-07-29T02:44:17.327Z,10.50
2022-07-29T02:46:52.166Z,8.57
2022-07-29T02:49:32.417Z,10.60
2022-07-29T02:52:04.342Z,8.80
2022-07-29T02:54:40.747Z,8.90
2022-07-29T02:57:16.501Z,5.33
2022-07-29T02:59:47.879Z,6.20
2022-07-29T03:02:19.229Z,7.23
2022-07-29T03:04:51.789Z,7.87
2022-07-29T03:07:23.325Z,11.13
2022-07-29T03:09:53.326Z,8.63
2022-07-29T03:12:22.779Z,8.37
2022-07-29T03:14:51.765Z,7.07
2022-07-29T03:17:24.430Z,7.00
2022-07-29T03:19:53.519Z,7.80
2022-07-29T03:22:22.573Z,7.53
2022-07-29T03:24:51.869Z,7.27
2022-07-29T03:27:21.282Z,6.57
2022-07-29T03:29:50.729Z,4.33
2022-07-29T03:32:25.097Z,4.57
2022-07-29T03:34:54.156Z,6.50
2022-07-29T03:37:26.459Z,7.53
2022-07-29T03:39:58.954Z,6.67
2022-07-29T03:42:34.156Z,6.70
2022-07-29T03:45:08.294Z,7.90
2022-07-29T03:47:50.973Z,7.53
2022-07-29T03:50:25.784Z,10.10
2022-07-29T03:52:55.086Z,8.60
2022-07-29T03:55:29.403Z,6.10
2022-07-29T03:57:59.279Z,5.47
2022-07-29T04:00:30.041Z,7.00
2022-07-29T04:03:00.993Z,5.57
2022-07-29T04:05:29.603Z,5.47
2022-07-29T04:07:58.524Z,6.80
2022-07-29T04:10:32.078Z,5.20
2022-07-29T04:13:03.612Z,5.67
2022-07-29T04:15:32.117Z,6.53
2022-07-29T04:18:02.282Z,6.60
2022-07-29T04:20:42.146Z,5.83
2022-07-29T04:23:10.919Z,4.73
2022-07-29T04:25:43.175Z,5.93
2022-07-29T04:28:12.723Z,7.93
2022-07-29T04:30:41.823Z,4.67
2022-07-29T04:33:13.496Z,7.37
2022-07-29T04:35:49.730Z,6.53
2022-07-29T04:38:19.528Z,8.63
2022-07-29T04:40:49.729Z,6.07
2022-07-29T04:43:22.529Z,7.20
2022-07-29T04:45:52.434Z,5.97
2022-07-29T04:48:33.312Z,7.00
2022-07-29T04:51:01.956Z,4.20
2022-07-29T04:53:32.429Z,5.10
2022-07-29T04:56:01.698Z,8.27
2022-07-29T04:58:31.025Z,4.70
2022-07-29T05:01:00.228Z,4.60
2022-07-29T05:03:40.980Z,4.13
2022-07-29T05:06:12.734Z,5.07
2022-07-29T05:08:41.915Z,5.37
2022-07-29T05:13:58.713Z,5.97
2022-07-29T05:16:30.158Z,7.93
2022-07-29T05:19:00.497Z,3.30
2022-07-29T05:21:30.455Z,4.83
2022-07-29T05:23:59.615Z,3.97
2022-07-29T05:26:28.777Z,3.60
2022-07-29T05:34:30.792Z,5.37
2022-07-29T05:37:00.526Z,4.53
2022-07-29T05:39:36.621Z,3.43
2022-07-29T05:42:19.072Z,4.37
2022-07-29T05:44:48.924Z,4.17
2022-07-29T05:47:17.454Z,3.60
2022-07-29T05:49:50.707Z,3.00
2022-07-29T05:52:21.686Z,6.13
2022-07-29T05:54:52.553Z,6.63
2022-07-29T05:57:25.359Z,7.60
2022-07-29T05:59:54.917Z,5.20
2022-07-29T06:02:27.011Z,8.30
2022-07-29T06:05:03.749Z,4.23
2022-07-29T06:07:34.112Z,5.10
2022-07-29T06:10:05.177Z,5.13
2022-07-29T06:12:34.179Z,6.47
2022-07-29T06:15:03.265Z,7.77
2022-07-29T06:17:32.854Z,4.40
2022-07-29T06:20:18.950Z,7.83
2022-07-29T06:23:00.308Z,5.37
2022-07-29T06:25:49.771Z,6.10
2022-07-29T06:28:35.047Z,6.67
2022-07-29T06:31:08.408Z,8.43
2022-07-29T06:34:26.005Z,6.70
2022-07-29T06:37:04.278Z,7.60
2022-07-29T06:39:35.384Z,7.30
2022-07-29T06:42:10.753Z,5.27
2022-07-29T06:44:39.188Z,10.60
2022-07-29T06:47:09.305Z,6.37
2022-07-29T06:49:38.166Z,6.20
2022-07-29T06:52:08.141Z,8.57
2022-07-29T06:54:36.408Z,8.90
2022-07-29T06:57:06.001Z,12.03
2022-07-29T06:59:35.956Z,7.13
2022-07-29T07:02:04.886Z,8.87
2022-07-29T07:04:37.671Z,10.00
2022-07-29T07:07:07.796Z,10.97
2022-07-29T07:09:40.494Z,10.47
2022-07-29T07:12:11.359Z,11.07
2022-07-29T07:14:41.324Z,10.93
2022-07-29T07:17:13.242Z,11.00
2022-07-29T07:19:44.354Z,12.17
2022-07-29T07:22:20.758Z,8.53
2022-07-29T07:24:54.891Z,9.23
2022-07-29T07:27:47.127Z,15.43
2022-07-29T07:33:37.569Z,14.30
2022-07-29T07:36:25.002Z,15.97
2022-07-29T07:39:15.883Z,10.63
2022-07-29T07:41:44.441Z,11.53
2022-07-29T07:44:16.364Z,16.40
2022-07-29T07:46:47.029Z,11.20
2022-07-29T07:49:21.328Z,16.13
2022-07-29T07:54:50.925Z,15.63
2022-07-29T07:57:39.896Z,16.10
2022-07-29T08:00:23.321Z,17.70
2022-07-29T08:02:59.874Z,17.33
2022-07-29T08:05:34.944Z,17.57
2022-07-29T08:08:16.602Z,11.73
2022-07-29T08:11:08.765Z,17.50
2022-07-29T08:14:11.493Z,16.67
2022-07-29T08:16:44.863Z,17.00
2022-07-29T08:19:30.465Z,18.33
2022-07-29T08:25:40.918Z,13.30
2022-07-29T08:28:29.635Z,18.93
2022-07-29T08:30:58.297Z,10.63
2022-07-29T08:33:31.442Z,15.43
2022-07-29T08:36:00.102Z,16.20
2022-07-29T08:41:27.046Z,15.90
2022-07-29T08:46:57.014Z,15.57
2022-07-29T08:49:34.233Z,13.27
2022-07-29T08:52:05.855Z,13.03
2022-07-29T08:54:36.987Z,10.90
2022-07-29T08:57:05.779Z,11.57
2022-07-29T08:59:38.775Z,14.03
2022-07-29T09:02:21.180Z,9.57
2022-07-29T09:04:53.026Z,12.40
2022-07-29T09:07:36.011Z,14.57
2022-07-29T09:13:25.658Z,9.83
2022-07-29T09:15:55.897Z,12.53
2022-07-29T09:19:00.184Z,7.37
2022-07-29T09:22:07.014Z,11.40
2022-07-29T09:25:04.788Z,7.63
2022-07-29T09:27:41.720Z,8.63
2022-07-29T09:30:30.468Z,9.90
2022-07-29T09:33:05.519Z,13.27
2022-07-29T09:41:47.326Z,9.52
2022-07-29T09:44:23.444Z,8.15
2022-07-29T09:47:17.106Z,8.18
2022-07-29T09:49:59.507Z,4.33
2022-07-29T09:52:34.764Z,8.95
2022-07-29T09:55:18.100Z,7.07
2022-07-29T09:58:06.380Z,7.63
2022-07-29T10:16:10.427Z,7.15
2022-07-29T10:18:44.868Z,7.45
2022-07-29T10:34:37.850Z,4.38
2022-07-29T10:37:35.530Z,3.33
2022-07-29T10:40:38.433Z,5.27
2022-07-29T10:46:16.009Z,4.83
2022-07-29T10:52:05.784Z,6.07
2022-07-29T10:57:25.910Z,3.80
2022-07-29T11:00:35.124Z,4.50
2022-07-29T11:03:10.577Z,5.23
2022-07-29T11:06:00.294Z,5.53
2022-07-29T11:08:38.419Z,5.60
2022-07-29T11:11:51.484Z,3.80
2022-07-29T11:14:26.444Z,3.93
2022-07-29T11:17:10.261Z,3.70
2022-07-29T11:19:52.545Z,11.87
2022-07-29T11:22:37.237Z,5.37
2022-07-29T11:25:43.035Z,3.65
2022-07-29T11:28:22.681Z,3.75
2022-07-29T11:30:59.176Z,4.77
2022-07-29T11:33:54.815Z,9.43
2022-07-29T11:36:28.206Z,3.40
2022-07-29T11:42:52.002Z,6.60
2022-07-29T11:45:48.359Z,7.03
2022-07-29T11:48:31.500Z,11.80
2022-07-29T11:51:04.761Z,7.40
2022-07-29T11:53:37.168Z,4.20
2022-07-29T11:56:10.395Z,6.13
2022-07-29T11:58:42.699Z,6.40
2022-07-29T12:01:17.183Z,4.47
2022-07-29T12:03:51.807Z,5.10
2022-07-29T12:06:33.876Z,4.13
2022-07-29T12:07:03.237Z,6.30
2022-07-29T12:09:19.187Z,4.80
2022-07-29T12:11:54.207Z,8.57
2022-07-29T12:17:54.200Z,4.27
2022-07-29T12:20:29.257Z,6.83
2022-07-29T12:22:59.392Z,4.77
2022-07-29T12:25:35.575Z,9.03
2022-07-29T12:28:27.390Z,7.53
2022-07-29T12:30:57.326Z,5.73
2022-07-29T12:33:33.240Z,4.87
2022-07-29T12:36:11.586Z,2.97
2022-07-29T12:39:11.454Z,7.67
2022-07-29T12:50:22.106Z,4.80
2022-07-29T12:52:55.667Z,5.45
2022-07-29T12:55:45.656Z,3.97
2022-07-29T12:58:22.114Z,7.60
2022-07-29T13:01:01.936Z,4.03
2022-07-29T13:06:08.833Z,4.28
2022-07-29T13:08:41.031Z,6.78
2022-07-29T13:11:09.690Z,4.35
2022-07-29T13:17:04.044Z,5.25
2022-07-29T13:19:44.826Z,7.68
2022-07-29T13:22:18.160Z,7.43
2022-07-29T13:25:20.924Z,6.38
2022-07-29T13:27:59.495Z,6.50
2022-07-29T13:30:30.123Z,6.57
2022-07-29T13:33:01.998Z,3.65
2022-07-29T13:35:40.152Z,5.65
2022-07-29T13:38:10.394Z,4.80
2022-07-29T13:41:22.938Z,4.75
2022-07-29T13:44:05.176Z,4.95
2022-07-29T13:46:39.553Z,3.63
2022-07-29T13:49:12.569Z,6.47
2022-07-29T13:51:41.271Z,6.95
2022-07-29T13:54:12.636Z,7.10
2022-07-29T13:56:44.564Z,3.85
2022-07-29T13:59:18.976Z,1.60
2022-07-29T14:01:50.572Z,2.33
2022-07-29T14:04:20.201Z,3.08
2022-07-29T14:06:51.098Z,4.93
2022-07-29T14:09:20.862Z,4.72
2022-07-29T14:11:51.582Z,3.08
2022-07-29T14:14:37.857Z,4.32
2022-07-29T14:17:11.368Z,4.70
2022-07-29T14:19:50.478Z,3.97
2022-07-29T14:22:23.089Z,3.70
2022-07-29T14:25:21.201Z,3.20
2022-07-29T14:31:07.272Z,2.58
2022-07-29T14:33:39.730Z,8.80
2022-07-29T14:36:10.688Z,3.97
2022-07-29T14:38:39.750Z,3.60
2022-07-29T14:41:19.734Z,1.98
2022-07-29T14:44:16.434Z,4.22
2022-07-29T14:46:50.009Z,9.93
2022-07-29T14:49:22.239Z,18.60
2022-07-29T14:51:51.920Z,4.75
2022-07-29T14:54:21.728Z,3.28
2022-07-29T14:56:56.784Z,2.53
2022-07-29T14:59:25.743Z,3.50
2022-07-29T15:01:58.625Z,2.75
2022-07-29T15:04:35.409Z,4.70
2022-07-29T15:07:07.235Z,3.22
2022-07-29T15:09:49.312Z,5.10
2022-07-29T15:12:21.043Z,5.93
2022-07-29T15:14:54.054Z,3.47
2022-07-29T15:17:40.412Z,10.18
2022-07-29T15:20:10.433Z,8.60
2022-07-29T15:22:46.044Z,5.05
2022-07-29T15:25:24.618Z,9.05
2022-07-29T15:28:00.943Z,2.42
2022-07-29T15:30:42.756Z,3.40
2022-07-29T15:33:22.090Z,3.20
2022-07-29T15:39:07.808Z,6.38
2022-07-29T15:41:38.776Z,3.40
2022-07-29T15:44:08.637Z,4.32
2022-07-29T15:49:59.731Z,5.50
2022-07-29T15:52:32.225Z,6.88
2022-07-29T15:55:17.551Z,5.03
2022-07-29T15:57:47.900Z,3.78
2022-07-29T16:00:20.112Z,3.70
2022-07-29T16:02:51.187Z,3.10
2022-07-29T16:05:25.389Z,4.50
2022-07-29T16:07:54.222Z,3.92
2022-07-29T16:10:23.676Z,3.40
2022-07-29T16:12:55.642Z,2.50
2022-07-29T16:15:26.198Z,2.90
2022-07-29T16:17:58.212Z,5.65
2022-07-29T16:20:28.295Z,5.15
2022-07-29T16:22:58.204Z,2.08
2022-07-29T16:25:57.580Z,2.67
2022-07-29T16:28:15.860Z,2.13
2022-07-29T16:30:44.626Z,3.53
2022-07-29T16:33:15.213Z,3.90
2022-07-29T16:36:01.043Z,3.50
2022-07-29T16:38:47.205Z,4.13
2022-07-29T16:41:24.276Z,3.00
2022-07-29T16:44:00.299Z,3.55
2022-07-29T16:46:35.142Z,3.65
2022-07-29T16:49:06.524Z,2.45
2022-07-29T16:51:39.095Z,4.43
2022-07-29T16:57:06.781Z,3.72
2022-07-29T16:59:43.374Z,2.03
2022-07-29T17:02:13.016Z,3.25
2022-07-29T17:04:43.258Z,4.40
2022-07-29T17:07:34.146Z,3.10
2022-07-29T17:10:06.261Z,7.22
2022-07-29T17:12:36.847Z,3.42
2022-07-29T17:15:06.829Z,5.50
2022-07-29T17:17:38.913Z,2.97
2022-07-29T17:20:25.003Z,3.38
2022-07-29T17:22:56.568Z,5.32
2022-07-29T17:25:25.137Z,2.78
2022-07-29T17:28:00.725Z,2.80
2022-07-29T17:30:40.538Z,4.55
2022-07-29T17:33:15.709Z,4.43
2022-07-29T17:36:01.808Z,2.33
2022-07-29T17:38:32.393Z,4.30
2022-07-29T17:41:01.555Z,6.35
2022-07-29T17:44:04.165Z,2.97
2022-07-29T17:46:50.555Z,10.63
2022-07-29T17:49:20.566Z,7.13
2022-07-29T17:52:02.037Z,2.63
2022-07-29T17:54:44.153Z,2.95
2022-07-29T17:57:24.906Z,4.00
2022-07-29T17:59:54.244Z,7.15
2022-07-29T18:02:23.797Z,2.58
2022-07-29T18:04:55.201Z,5.88
2022-07-29T18:07:24.664Z,2.08
2022-07-29T18:10:00.902Z,5.03
2022-07-29T18:12:37.180Z,2.95
2022-07-29T18:15:23.228Z,2.13
2022-07-29T18:17:57.765Z,3.08
2022-07-29T18:20:27.676Z,2.65
2022-07-29T18:22:58.551Z,4.03
2022-07-29T18:25:43.966Z,2.55
2022-07-29T18:28:15.808Z,3.55
2022-07-29T18:30:46.522Z,2.08
2022-07-29T18:33:22.633Z,4.18
2022-07-29T18:36:10.002Z,4.68
2022-07-29T18:38:42.946Z,4.20
2022-07-29T18:41:12.692Z,3.22
2022-07-29T18:43:46.170Z,4.25
2022-07-29T18:46:15.463Z,3.40
2022-07-29T18:48:44.064Z,3.95
2022-07-29T18:51:14.336Z,2.53
2022-07-29T18:53:42.610Z,2.33
2022-07-29T18:56:12.351Z,6.60
2022-07-29T18:58:40.997Z,3.40
2022-07-29T19:01:14.764Z,4.90
2022-07-29T19:03:45.262Z,3.40
2022-07-29T19:06:13.931Z,6.20
2022-07-29T19:08:46.792Z,2.22
2022-07-29T19:11:30.719Z,2.63
2022-07-29T19:13:59.056Z,4.35
2022-07-29T19:16:27.490Z,5.13
2022-07-29T19:18:56.396Z,5.25
2022-07-29T19:21:28.121Z,2.35
2022-07-29T19:24:01.411Z,4.35
2022-07-29T19:26:46.625Z,1.90
2022-07-29T19:29:15.113Z,4.93
2022-07-29T19:31:44.277Z,5.10
2022-07-29T19:34:12.827Z,3.20
2022-07-29T19:36:42.083Z,3.25
2022-07-29T19:39:10.747Z,4.87
2022-07-29T19:41:40.661Z,4.50
2022-07-29T19:44:08.950Z,6.33
2022-07-29T19:46:37.600Z,3.00
2022-07-29T19:49:07.012Z,5.60
2022-07-29T19:51:36.274Z,6.33
2022-07-29T19:54:04.930Z,5.60
2022-07-29T19:56:34.618Z,5.20
2022-07-29T19:59:08.508Z,5.27
2022-07-29T20:01:37.262Z,3.60
2022-07-29T20:04:05.889Z,4.40
2022-07-29T20:06:34.276Z,3.47
2022-07-29T20:09:02.627Z,9.27
2022-07-29T20:11:31.077Z,6.97
2022-07-29T20:13:59.999Z,5.43
2022-07-29T20:16:30.177Z,6.03
2022-07-29T20:19:01.015Z,3.80
2022-07-29T20:21:29.536Z,3.97
2022-07-29T20:24:00.530Z,6.37
2022-07-29T20:26:28.785Z,4.73
2022-07-29T20:28:57.267Z,7.67
2022-07-29T20:31:26.046Z,7.00
2022-07-29T20:33:55.650Z,3.17
2022-07-29T20:36:23.850Z,8.97
2022-07-29T20:38:52.556Z,8.03
2022-07-29T20:41:21.839Z,5.97
2022-07-29T20:43:51.201Z,10.93
2022-07-29T20:46:22.245Z,4.33
2022-07-29T20:48:51.214Z,4.93
2022-07-29T20:51:25.275Z,5.30
2022-07-29T20:53:53.792Z,5.10
2022-07-29T20:56:22.523Z,5.53
2022-07-29T20:58:52.558Z,7.67
2022-07-29T21:01:21.989Z,3.93
2022-07-29T21:03:50.861Z,6.47
2022-07-29T21:06:22.907Z,4.93
2022-07-29T21:08:55.907Z,5.17
2022-07-29T21:11:44.797Z,3.07
2022-07-29T21:14:20.283Z,5.33
2022-07-29T21:16:48.622Z,9.77
2022-07-29T21:19:19.304Z,5.13
2022-07-29T21:21:50.650Z,5.33
2022-07-29T21:24:20.123Z,8.00
2022-07-29T21:27:11.000Z,5.20
2022-07-29T21:29:35.877Z,5.83
2022-07-29T21:32:04.337Z,6.70
2022-07-29T21:34:32.610Z,6.47
2022-07-29T21:37:02.568Z,3.50
2022-07-29T21:39:31.280Z,6.03
2022-07-29T21:41:59.714Z,4.03
2022-07-29T21:44:28.886Z,6.40
2022-07-29T21:46:57.485Z,4.43
2022-07-29T21:49:26.187Z,7.63
2022-07-29T21:51:54.726Z,8.30
2022-07-29T21:54:24.659Z,4.60
2022-07-29T21:56:53.456Z,6.97
2022-07-29T21:59:22.498Z,7.57
2022-07-29T22:01:51.153Z,5.30
2022-07-29T22:04:19.804Z,4.20
2022-07-29T22:06:51.004Z,7.10
2022-07-29T22:12:16.750Z,4.07
2022-07-29T22:14:45.276Z,5.70
2022-07-29T22:17:13.862Z,9.97
2022-07-29T22:19:42.563Z,5.27
2022-07-29T22:22:11.086Z,7.33
2022-07-29T22:24:39.402Z,5.67
2022-07-29T22:27:07.675Z,3.53
2022-07-29T22:29:37.789Z,3.90
2022-07-29T22:32:06.553Z,4.37
2022-07-29T22:34:37.228Z,5.17
2022-07-29T22:37:06.541Z,4.60
2022-07-29T22:39:35.387Z,3.93
2022-07-29T22:42:05.163Z,6.07
2022-07-29T22:44:33.443Z,5.03
2022-07-29T22:47:04.139Z,4.10
2022-07-29T22:49:32.590Z,6.07
2022-07-29T22:52:02.346Z,6.00
2022-07-29T22:54:30.791Z,6.00
2022-07-29T22:56:59.455Z,8.40
2022-07-29T22:59:27.992Z,7.97
2022-07-29T23:01:56.443Z,8.10
2022-07-29T23:04:26.441Z,6.37
2022-07-29T23:06:54.837Z,6.20
2022-07-29T23:09:23.113Z,7.77
2022-07-29T23:11:51.479Z,6.60
2022-07-29T23:14:20.047Z,8.53
2022-07-29T23:16:49.229Z,4.40
2022-07-29T23:19:17.816Z,4.13
2022-07-29T23:21:47.436Z,4.73
2022-07-29T23:24:15.622Z,5.77
2022-07-29T23:26:43.758Z,4.23
2022-07-29T23:29:12.053Z,7.33
2022-07-29T23:31:47.757Z,6.07
2022-07-29T23:34:16.645Z,10.57
2022-07-29T23:36:47.677Z,9.47
2022-07-29T23:39:16.263Z,8.90
2022-07-29T23:41:44.463Z,7.10
2022-07-29T23:44:12.594Z,5.87
2022-07-29T23:46:40.923Z,9.43
2022-07-29T23:49:09.246Z,4.33
2022-07-29T23:51:37.473Z,4.23
2022-07-29T23:54:07.319Z,5.20
2022-07-29T23:56:35.531Z,6.80
2022-07-29T23:59:03.983Z,9.23
